עמוד ראשי
METAR-TAF:

METAR-TAF

שדות תעופה :

Almagro, ספרד

קו רוחב: 38-57-11N, קו אורך: 3-44-29W, גובה: 629מטר

תצפית מזג אוויר נוכחית

הדו"ח נערך לפני 24דקות, בשעה 12:30 UTC
רוח 3קשר מכיוון דרום
טמפרטורת 36 צלסיוס
לחות 16%
לחץ 1017 hPa
ראות 10 קילומטר או יותר
ללא עננים שבסיסם נמוך מ 5000 רגל או קומולונימבוס

METAR: LEAO 171230Z 19003KT CAVOK 36/06 Q1017

זמן: 14:54 (12:54 UTC)

תחזית

הדו"ח נערך לפני 4 שעות ו 54דקות, בשעה 08:00 UTC
תחזית בתוקף מ 17 ב 09 UTC עד 18 ב 09 UTC
רוח 4קשר עם כיוונים משתנים
ראות 10 קילומטר או יותר
ללא עננים שבסיסם נמוך מ 5000 רגל או קומולונימבוס
יעשה מ
17 ב 12 UTC עד 17 ב 14 UTC
רוח 10קשר מכיוון מערב/דרום-מערב
יעשה מ
17 ב 18 UTC עד 17 ב 20 UTC
רוח 3קשר עם כיוונים משתנים

TAF: LEAO 170800Z 1709/1809 VRB04KT CAVOK TX37/1715Z TN21/1805Z BECMG 1712/1714 25010KT BECMG 1718/1720 VRB03KT

תצפיות ותחזיות מזג אוויר לגבי יותר מ- 4,000 שדות תעופה ברחבי העולם. דוחות METAR ו- TAF.

התחנות הזמינות מסומנות בנקודות צהובות ואדומות על גבי המפה.

העבר את העכבר לנקודה הצבעונית על מנת לראות את שם התחנה.

לאחר מכן, לחץ כדי לראות את תוכן ואת תחזיות מזג האוויר.

כדי לשנות את המפה: לחץ על הכפתורים הירוקים עם הפלוס השחור כדי להתקרב; על הכפתור הירוק עם המקף כדי להתרחק; או בחיצים הירוקים למפות סמוכות.


METAR-TAF: